Time;durP1;ratioP1;P1;durP2;ratioP2;P2;SDS_P1;SDS_P2;PMS_P1;PMS_P2;Temp;Humidity;BMP_temperature;BMP_pressure;BME280_temperature;BME280_humidity;BME280_pressure;Samples;Min_cycle;Max_cycle;Signal;HPM_P1;HPM_P2
2022/10/28 00:02:12;;;;;;;17.15;8.80;;;15.10;99.90;;;;;;4922778;29;20046;-64
2022/10/28 00:04:37;;;;;;;17.20;9.50;;;15.10;99.90;;;;;;4926187;29;20039;-65
2022/10/28 00:07:03;;;;;;;15.90;9.13;;;15.10;99.90;;;;;;4925036;29;20395;-64
2022/10/28 00:09:29;;;;;;;26.15;8.93;;;15.00;99.90;;;;;;4931686;29;20063;-64
2022/10/28 00:11:54;;;;;;;18.02;10.05;;;15.00;99.90;;;;;;4909512;29;20108;-65
2022/10/28 00:14:20;;;;;;;16.10;8.77;;;15.00;99.90;;;;;;4927150;29;20031;-64
2022/10/28 00:16:46;;;;;;;15.10;9.70;;;15.00;99.90;;;;;;4931810;29;20487;-64
2022/10/28 00:19:12;;;;;;;15.77;9.00;;;15.00;99.90;;;;;;4928966;29;20046;-64
2022/10/28 00:21:40;;;;;;;17.60;8.98;;;15.00;99.90;;;;;;4928947;29;20043;-64
2022/10/28 00:24:06;;;;;;;18.85;9.85;;;15.00;99.90;;;;;;4927489;29;20047;-63
2022/10/28 00:26:35;;;;;;;19.70;9.18;;;15.10;99.90;;;;;;4927776;29;20036;-64
2022/10/28 00:29:13;;;;;;;16.17;9.73;;;15.10;99.90;;;;;;4913847;29;20044;-64
2022/10/28 00:31:39;;;;;;;20.00;9.55;;;15.10;99.90;;;;;;4910605;29;20491;-64
2022/10/28 00:34:06;;;;;;;17.52;9.95;;;15.10;99.90;;;;;;4925410;29;20039;-64
2022/10/28 00:36:35;;;;;;;17.63;9.95;;;15.10;99.90;;;;;;4924319;29;20406;-64
2022/10/28 00:39:02;;;;;;;17.13;10.55;;;15.10;99.90;;;;;;4928913;29;20399;-64
2022/10/28 00:41:34;;;;;;;19.98;9.82;;;15.00;99.90;;;;;;4926788;29;20048;-64
2022/10/28 00:44:21;;;;;;;19.23;9.57;;;15.00;99.90;;;;;;4904354;29;20055;-64
2022/10/28 00:46:50;;;;;;;17.75;9.90;;;15.00;99.90;;;;;;4913253;29;20087;-64
2022/10/28 00:49:18;;;;;;;21.98;10.05;;;15.00;99.90;;;;;;4930336;29;20048;-64
2022/10/28 00:51:47;;;;;;;24.35;10.23;;;15.00;99.90;;;;;;4931309;29;20519;-64
2022/10/28 00:54:15;;;;;;;19.50;10.02;;;15.00;99.90;;;;;;4925591;29;20122;-64
2022/10/28 00:56:45;;;;;;;22.20;10.63;;;15.00;99.90;;;;;;4928840;29;20052;-65
2022/10/28 00:59:18;;;;;;;18.98;10.23;;;14.90;99.90;;;;;;4928868;29;20043;-64
2022/10/28 01:01:44;;;;;;;19.42;9.35;;;15.00;99.90;;;;;;4907246;29;20043;-64
2022/10/28 01:04:12;;;;;;;23.27;10.40;;;14.90;99.90;;;;;;4926811;29;20515;-64
2022/10/28 01:06:37;;;;;;;20.38;10.20;;;15.00;99.90;;;;;;4924961;29;20489;-65
2022/10/28 01:09:03;;;;;;;23.58;9.60;;;15.00;99.90;;;;;;4930241;29;20042;-64
2022/10/28 01:11:51;;;;;;;19.98;9.88;;;14.90;99.90;;;;;;4929965;29;20051;-64
2022/10/28 01:14:28;;;;;;;18.85;10.27;;;14.90;99.90;;;;;;4922747;29;20424;-64
2022/10/28 01:17:22;;;;;;;19.38;10.30;;;14.90;99.90;;;;;;4927138;29;20138;-64
2022/10/28 01:20:03;;;;;;;18.83;9.50;;;14.90;99.90;;;;;;4929860;29;20058;-64
2022/10/28 01:22:55;;;;;;;29.48;9.85;;;14.80;99.90;;;;;;4932119;29;20484;-64
2022/10/28 01:25:54;;;;;;;21.02;9.73;;;14.80;99.90;;;;;;4923771;29;20040;-65
2022/10/28 01:28:32;;;;;;;13.10;8.93;;;14.60;99.90;;;;;;4933379;29;20384;-64
2022/10/28 01:31:16;;;;;;;18.05;9.20;;;14.50;99.90;;;;;;4930785;29;20723;-64
2022/10/28 01:33:46;;;;;;;14.13;9.00;;;14.40;99.90;;;;;;4926803;29;20036;-64
2022/10/28 01:36:28;;;;;;;14.27;8.10;;;14.30;99.90;;;;;;4928129;29;20036;-64
2022/10/28 01:39:03;;;;;;;19.05;9.23;;;14.20;99.90;;;;;;4925563;29;20075;-65
2022/10/28 01:41:57;;;;;;;16.85;8.00;;;14.00;99.90;;;;;;4931500;29;20547;-64
2022/10/28 01:44:37;;;;;;;19.48;8.65;;;13.90;99.90;;;;;;4926611;29;20185;-64
2022/10/28 01:47:07;;;;;;;18.88;9.23;;;13.80;99.90;;;;;;4931815;29;20052;-63
2022/10/28 01:49:45;;;;;;;16.75;9.20;;;13.70;99.90;;;;;;4922575;29;20051;-64
2022/10/28 01:52:14;;;;;;;21.80;10.27;;;13.60;99.90;;;;;;4906040;29;20052;-64
2022/10/28 01:54:44;;;;;;;17.73;9.82;;;13.50;99.90;;;;;;4930069;29;20043;-64
2022/10/28 01:57:12;;;;;;;17.55;10.05;;;13.50;99.90;;;;;;4927661;29;20077;-64
2022/10/28 01:59:39;;;;;;;21.88;9.48;;;13.40;99.90;;;;;;4915057;29;20044;-64
2022/10/28 02:02:04;;;;;;;18.38;9.90;;;13.30;99.90;;;;;;4930289;29;20130;-64
2022/10/28 02:04:30;;;;;;;19.10;9.43;;;13.30;99.90;;;;;;4928293;29;20118;-64
2022/10/28 02:06:59;;;;;;;24.45;10.57;;;13.30;99.90;;;;;;4928749;29;20040;-63
2022/10/28 02:10:01;;;;;;;19.98;10.10;;;13.20;99.90;;;;;;4916833;29;20492;-63
2022/10/28 02:12:36;;;;;;;16.10;9.80;;;13.20;99.90;;;;;;4911879;29;20052;-64
2022/10/28 02:15:26;;;;;;;18.88;10.38;;;13.20;99.90;;;;;;4928698;29;20043;-63
2022/10/28 02:18:03;;;;;;;23.45;10.93;;;13.20;99.90;;;;;;4931745;29;20035;-64
2022/10/28 02:21:03;;;;;;;22.67;10.93;;;13.20;99.90;;;;;;4924459;29;20082;-64
2022/10/28 02:23:32;;;;;;;20.80;10.30;;;13.30;99.90;;;;;;4924644;29;20039;-63
2022/10/28 02:26:21;;;;;;;19.05;10.40;;;13.30;99.90;;;;;;4931111;29;20044;-64
2022/10/28 02:28:46;;;;;;;22.65;11.95;;;13.40;99.90;;;;;;4911301;29;22901;-63
2022/10/28 02:31:19;;;;;;;22.15;12.02;;;13.50;99.90;;;;;;4927590;29;20039;-64
2022/10/28 02:33:51;;;;;;;24.92;12.57;;;13.50;99.90;;;;;;4928484;29;20400;-64
2022/10/28 02:36:20;;;;;;;23.58;12.13;;;13.60;99.90;;;;;;4924991;29;20480;-64
2022/10/28 02:38:49;;;;;;;25.85;11.93;;;13.60;99.90;;;;;;4926739;29;20036;-64
2022/10/28 02:41:22;;;;;;;22.02;12.50;;;13.60;99.90;;;;;;4926771;29;20090;-64
2022/10/28 02:43:54;;;;;;;23.02;11.50;;;13.70;99.90;;;;;;4927864;29;20123;-64
2022/10/28 02:46:22;;;;;;;27.95;12.02;;;13.60;99.90;;;;;;4923619;29;20032;-64
2022/10/28 02:48:52;;;;;;;20.27;11.43;;;13.70;99.90;;;;;;4929814;29;20062;-64
2022/10/28 02:51:21;;;;;;;27.20;12.65;;;13.70;99.90;;;;;;4929133;29;20043;-64
2022/10/28 02:54:09;;;;;;;26.83;12.88;;;13.60;99.90;;;;;;4911981;29;20060;-64
2022/10/28 02:56:41;;;;;;;23.40;11.70;;;13.60;99.90;;;;;;4930351;29;20056;-65
2022/10/28 02:59:11;;;;;;;27.52;12.10;;;13.50;99.90;;;;;;4928714;29;20047;-64
2022/10/28 03:01:37;;;;;;;;;;;13.40;99.90;;;;;;4928094;29;20035;-64
2022/10/28 03:04:03;;;;;;;20.75;10.90;;;13.30;99.90;;;;;;4925165;29;19927;-64
2022/10/28 03:06:29;;;;;;;16.02;9.85;;;13.20;99.90;;;;;;4929085;29;20091;-64
2022/10/28 03:08:55;;;;;;;20.23;10.32;;;13.00;99.90;;;;;;4914380;29;20067;-64
2022/10/28 03:11:21;;;;;;;18.60;9.80;;;13.00;99.90;;;;;;4932075;29;20642;-64
2022/10/28 03:13:46;;;;;;;16.20;10.57;;;12.80;99.90;;;;;;4928840;29;22154;-64
2022/10/28 03:16:12;;;;;;;14.95;9.55;;;12.70;99.90;;;;;;4926290;29;20063;-65
2022/10/28 03:18:37;;;;;;;16.83;10.00;;;12.60;99.90;;;;;;4926686;29;20055;-64
2022/10/28 03:21:03;;;;;;;13.73;8.77;;;12.60;99.90;;;;;;4921752;29;20048;-64
2022/10/28 03:23:28;;;;;;;17.95;9.38;;;12.50;99.90;;;;;;4929159;29;20040;-64
2022/10/28 03:25:54;;;;;;;23.23;9.77;;;12.50;99.90;;;;;;4931131;29;20032;-64
2022/10/28 03:28:20;;;;;;;14.82;9.05;;;12.40;99.90;;;;;;4927069;29;20043;-64
2022/10/28 03:30:45;;;;;;;15.60;8.85;;;12.30;99.90;;;;;;4927645;29;20071;-64
2022/10/28 03:33:11;;;;;;;16.70;9.65;;;12.30;99.90;;;;;;4931965;29;20126;-63
2022/10/28 03:35:36;;;;;;;20.42;10.27;;;12.20;99.90;;;;;;4929313;29;20043;-64
2022/10/28 03:38:02;;;;;;;17.42;9.27;;;12.10;99.90;;;;;;4930518;29;20558;-64
2022/10/28 03:40:28;;;;;;;18.77;9.73;;;12.10;99.90;;;;;;4927038;29;20044;-64
2022/10/28 03:42:53;;;;;;;20.60;9.93;;;12.00;99.90;;;;;;4928843;29;20139;-64
2022/10/28 03:45:19;;;;;;;22.58;11.40;;;12.00;99.90;;;;;;4908892;29;20058;-65
2022/10/28 03:47:44;;;;;;;18.25;10.27;;;12.00;99.90;;;;;;4923554;29;20039;-64
2022/10/28 03:50:10;;;;;;;16.58;10.57;;;12.00;99.90;;;;;;4928523;29;20050;-65
2022/10/28 03:52:36;;;;;;;20.52;10.65;;;12.00;99.90;;;;;;4924428;29;20055;-64
2022/10/28 03:55:02;;;;;;;17.60;9.52;;;11.90;99.90;;;;;;4913330;29;20404;-64
2022/10/28 03:57:31;;;;;;;15.23;9.43;;;11.90;99.90;;;;;;4923095;29;20094;-64
2022/10/28 03:59:57;;;;;;;17.85;10.07;;;11.90;99.90;;;;;;4927665;29;20556;-64
2022/10/28 04:02:23;;;;;;;16.52;9.15;;;11.80;99.90;;;;;;4928076;29;20114;-64
2022/10/28 04:04:49;;;;;;;13.52;8.38;;;11.80;99.90;;;;;;4898373;29;20047;-64
2022/10/28 04:07:14;;;;;;;13.02;8.90;;;11.80;99.90;;;;;;4929326;29;20036;-65
2022/10/28 04:09:40;;;;;;;14.80;8.73;;;11.80;99.90;;;;;;4928912;29;20094;-64
2022/10/28 04:12:05;;;;;;;17.48;10.35;;;11.80;99.90;;;;;;4930441;29;20047;-64
2022/10/28 04:14:31;;;;;;;15.25;10.02;;;11.80;99.90;;;;;;4929142;29;20365;-64
2022/10/28 04:16:57;;;;;;;21.98;12.18;;;11.90;99.90;;;;;;4927888;29;20070;-64
2022/10/28 04:19:23;;;;;;;18.52;11.48;;;11.90;99.90;;;;;;4929546;29;20139;-65
2022/10/28 04:21:48;;;;;;;21.67;11.43;;;11.90;99.90;;;;;;4924525;29;20040;-63
2022/10/28 04:24:14;;;;;;;23.85;11.45;;;11.90;99.90;;;;;;4928552;29;20113;-64
2022/10/28 04:26:39;;;;;;;20.05;11.52;;;12.00;99.90;;;;;;4927664;29;20058;-63
2022/10/28 04:29:05;;;;;;;25.80;12.90;;;12.00;99.90;;;;;;4926175;29;20066;-63
2022/10/28 04:31:31;;;;;;;25.30;12.15;;;12.00;99.90;;;;;;4927619;29;20427;-64
2022/10/28 04:33:56;;;;;;;23.88;12.93;;;12.00;99.90;;;;;;4930086;29;20411;-64
2022/10/28 04:36:22;;;;;;;20.90;12.40;;;12.00;99.90;;;;;;4928252;29;20035;-64
2022/10/28 04:38:48;;;;;;;23.38;12.82;;;12.00;99.90;;;;;;4930463;29;20038;-64
2022/10/28 04:41:14;;;;;;;21.58;11.52;;;12.00;99.90;;;;;;4925536;29;20407;-64
2022/10/28 04:43:40;;;;;;;25.55;12.02;;;12.00;99.90;;;;;;4928248;29;20040;-64
2022/10/28 04:46:05;;;;;;;22.05;12.85;;;12.00;99.90;;;;;;4920353;29;20123;-64
2022/10/28 04:48:32;;;;;;;22.65;12.05;;;12.00;99.90;;;;;;4932064;29;20118;-63
2022/10/28 04:50:57;;;;;;;27.52;14.57;;;12.10;99.90;;;;;;4925806;29;20059;-64
2022/10/28 04:53:23;;;;;;;23.10;12.27;;;12.10;99.90;;;;;;4936227;29;20052;-64
2022/10/28 04:55:49;;;;;;;25.80;14.43;;;12.10;99.90;;;;;;4926827;29;20043;-64
2022/10/28 04:58:14;;;;;;;25.40;13.63;;;12.20;99.90;;;;;;4933288;29;20486;-64
2022/10/28 05:00:40;;;;;;;24.15;14.10;;;12.30;99.90;;;;;;4913102;29;20062;-64
2022/10/28 05:03:05;;;;;;;28.85;14.75;;;12.30;99.90;;;;;;4916748;29;20094;-64
2022/10/28 05:05:31;;;;;;;25.02;13.95;;;12.30;99.90;;;;;;4914519;29;20518;-64
2022/10/28 05:07:57;;;;;;;22.85;13.05;;;12.30;99.90;;;;;;4931577;29;20048;-64
2022/10/28 05:10:23;;;;;;;31.95;13.80;;;12.40;99.90;;;;;;4915160;29;20056;-64
2022/10/28 05:12:48;;;;;;;27.85;13.95;;;12.40;99.90;;;;;;4932099;29;20668;-64
2022/10/28 05:15:14;;;;;;;22.70;12.95;;;12.40;99.90;;;;;;4926104;29;20075;-64
2022/10/28 05:17:43;;;;;;;24.73;13.85;;;12.40;99.90;;;;;;4931373;29;20127;-64
2022/10/28 05:20:10;;;;;;;28.67;14.65;;;12.40;99.90;;;;;;4931333;29;20071;-64
2022/10/28 05:22:36;;;;;;;27.10;13.75;;;12.40;99.90;;;;;;4933700;29;20039;-65
2022/10/28 05:25:02;;;;;;;23.88;12.48;;;12.40;99.90;;;;;;4930114;29;20384;-65
2022/10/28 05:27:28;;;;;;;26.10;13.75;;;12.30;99.90;;;;;;4927548;29;20044;-64
2022/10/28 05:29:53;;;;;;;30.02;13.57;;;12.40;99.90;;;;;;4928629;29;20044;-63
2022/10/28 05:32:19;;;;;;;24.83;13.05;;;12.40;99.90;;;;;;4929389;29;20196;-63
2022/10/28 05:34:44;;;;;;;25.45;13.30;;;12.30;99.90;;;;;;4934755;29;20392;-64
2022/10/28 05:37:10;;;;;;;27.00;13.00;;;12.30;99.90;;;;;;4926267;29;20040;-64
2022/10/28 05:39:35;;;;;;;29.52;12.43;;;12.30;99.90;;;;;;4915230;29;20723;-64
2022/10/28 05:42:01;;;;;;;26.38;12.90;;;12.30;99.90;;;;;;4928205;29;20079;-64
2022/10/28 05:44:27;;;;;;;28.10;12.57;;;12.30;99.90;;;;;;4935760;29;20036;-64
2022/10/28 05:46:53;;;;;;;32.33;13.02;;;12.20;99.90;;;;;;4932737;29;20115;-64
2022/10/28 05:49:19;;;;;;;24.60;12.32;;;12.20;99.90;;;;;;4933129;29;20047;-64
2022/10/28 05:51:45;;;;;;;24.52;12.25;;;12.10;99.90;;;;;;4917452;29;20045;-63
2022/10/28 05:54:11;;;;;;;23.70;12.02;;;12.10;99.90;;;;;;4933268;29;20122;-64
2022/10/28 05:56:36;;;;;;;25.67;11.82;;;12.10;99.90;;;;;;4928404;29;20143;-64
2022/10/28 05:59:02;;;;;;;21.52;11.85;;;12.10;99.90;;;;;;4928435;29;20047;-64
2022/10/28 06:01:27;;;;;;;19.52;11.68;;;12.00;99.90;;;;;;4927579;29;20047;-65
2022/10/28 06:03:53;;;;;;;24.73;12.45;;;12.00;99.90;;;;;;4932018;29;20040;-65
2022/10/28 06:06:18;;;;;;;19.52;11.25;;;11.90;99.90;;;;;;4932018;29;20054;-64
2022/10/28 06:08:44;;;;;;;21.23;11.80;;;11.90;99.90;;;;;;4932671;29;20107;-64
2022/10/28 06:11:10;;;;;;;22.83;11.35;;;11.90;99.90;;;;;;4896983;29;20054;-64
2022/10/28 06:13:35;;;;;;;20.17;11.43;;;11.90;99.90;;;;;;4934901;29;20471;-64
2022/10/28 06:16:01;;;;;;;20.08;11.20;;;11.80;99.90;;;;;;4918053;29;20401;-64
2022/10/28 06:18:26;;;;;;;19.80;11.40;;;11.80;99.90;;;;;;4934546;29;20491;-64
2022/10/28 06:20:57;;;;;;;19.83;11.70;;;11.80;99.90;;;;;;4929232;29;20504;-64
2022/10/28 06:23:23;;;;;;;;;;;11.70;99.90;;;;;;4930578;29;20079;-65
2022/10/28 06:25:49;;;;;;;22.27;11.38;;;11.70;99.90;;;;;;4928759;29;19919;-64
2022/10/28 06:28:15;;;;;;;20.40;10.45;;;11.70;99.90;;;;;;4929616;29;20130;-64
2022/10/28 06:30:40;;;;;;;21.80;11.52;;;11.70;99.90;;;;;;4911978;29;20129;-65
2022/10/28 06:33:06;;;;;;;19.20;11.23;;;11.70;99.90;;;;;;4936226;29;20055;-64
2022/10/28 06:35:31;;;;;;;21.00;11.98;;;11.70;99.90;;;;;;4933941;29;20078;-64
2022/10/28 06:37:57;;;;;;;20.23;10.98;;;11.70;99.90;;;;;;4934249;29;20052;-65
2022/10/28 06:40:26;;;;;;;25.02;11.38;;;11.70;99.90;;;;;;4931158;29;20500;-64
2022/10/28 06:43:00;;;;;;;23.33;11.65;;;11.70;99.90;;;;;;4919350;29;20042;-64
2022/10/28 06:45:29;;;;;;;23.73;11.40;;;11.70;99.90;;;;;;4929009;29;20040;-64
2022/10/28 06:48:00;;;;;;;18.83;11.45;;;11.70;99.90;;;;;;4930023;29;20047;-64
2022/10/28 06:50:26;;;;;;;23.17;11.32;;;11.70;99.90;;;;;;4931702;29;20075;-64
2022/10/28 06:52:55;;;;;;;23.05;13.18;;;11.80;99.90;;;;;;4900196;29;20048;-64
2022/10/28 06:55:20;;;;;;;21.55;11.30;;;11.80;99.90;;;;;;4928706;29;20432;-64
2022/10/28 06:57:46;;;;;;;26.55;12.50;;;11.90;99.90;;;;;;4930845;29;20059;-64
2022/10/28 07:00:12;;;;;;;27.40;12.95;;;11.90;99.90;;;;;;4911291;29;20048;-65
2022/10/28 07:02:38;;;;;;;24.35;12.43;;;11.90;99.90;;;;;;4929597;29;20043;-65
2022/10/28 07:05:04;;;;;;;23.33;12.23;;;12.00;99.90;;;;;;4919431;29;20044;-64
2022/10/28 07:07:29;;;;;;;27.13;12.95;;;12.10;99.90;;;;;;4932625;29;20040;-64
2022/10/28 07:09:55;;;;;;;25.48;12.10;;;12.20;99.90;;;;;;4908037;29;20039;-63
2022/10/28 07:12:20;;;;;;;23.02;13.27;;;12.20;99.90;;;;;;4933325;29;20048;-64
2022/10/28 07:14:46;;;;;;;26.45;12.48;;;12.30;99.90;;;;;;4932458;29;20070;-64
2022/10/28 07:17:11;;;;;;;24.58;13.18;;;12.50;99.90;;;;;;4934077;29;20479;-64
2022/10/28 07:19:37;;;;;;;23.90;13.20;;;12.60;99.90;;;;;;4932535;29;20388;-64
2022/10/28 07:22:03;;;;;;;25.75;12.18;;;12.70;99.90;;;;;;4915887;29;20055;-64
2022/10/28 07:24:28;;;;;;;25.85;13.18;;;13.00;99.90;;;;;;4923148;29;20567;-65
2022/10/28 07:26:54;;;;;;;28.55;12.85;;;13.20;99.90;;;;;;4921003;29;20043;-64
2022/10/28 07:29:19;;;;;;;22.73;12.07;;;13.40;99.90;;;;;;4920220;29;20040;-64
2022/10/28 07:31:45;;;;;;;22.60;11.73;;;13.40;99.90;;;;;;4917732;29;20050;-63
2022/10/28 07:34:10;;;;;;;21.80;11.52;;;13.60;99.90;;;;;;4932222;29;20051;-63
2022/10/28 07:36:36;;;;;;;21.85;11.18;;;13.70;99.90;;;;;;4918119;29;20047;-65
2022/10/28 07:39:02;;;;;;;26.00;11.23;;;13.90;99.90;;;;;;4932374;29;20044;-63
2022/10/28 07:41:28;;;;;;;19.40;11.27;;;14.00;99.90;;;;;;4924829;29;20074;-63
2022/10/28 07:43:54;;;;;;;19.48;10.57;;;14.10;99.90;;;;;;4914368;29;20046;-65
2022/10/28 07:46:20;;;;;;;25.60;11.68;;;14.20;99.90;;;;;;4934009;29;20151;-65
2022/10/28 07:48:46;;;;;;;21.92;10.23;;;14.20;99.90;;;;;;4930595;29;20547;-65
2022/10/28 07:51:13;;;;;;;19.08;9.43;;;14.30;99.90;;;;;;4937109;29;20054;-63
2022/10/28 07:53:40;;;;;;;25.42;10.45;;;14.50;99.90;;;;;;4935352;29;20095;-64
2022/10/28 07:56:09;;;;;;;19.75;9.75;;;14.60;99.90;;;;;;4934551;29;20099;-64
2022/10/28 07:58:35;;;;;;;21.25;9.07;;;14.70;99.90;;;;;;4925319;29;20040;-62
2022/10/28 08:01:07;;;;;;;20.95;9.95;;;14.80;99.90;;;;;;4942041;29;20107;-63
2022/10/28 08:03:33;;;;;;;23.92;9.13;;;15.00;99.90;;;;;;4933052;29;20043;-65
2022/10/28 08:06:07;;;;;;;20.52;9.65;;;15.10;99.90;;;;;;4933306;29;20043;-62
2022/10/28 08:08:32;;;;;;;19.50;8.52;;;15.10;99.90;;;;;;4940238;29;20069;-64
2022/10/28 08:10:58;;;;;;;18.38;8.65;;;15.20;99.90;;;;;;4942510;29;20091;-64
2022/10/28 08:13:24;;;;;;;20.80;8.23;;;15.30;99.90;;;;;;4935776;29;20395;-64
2022/10/28 08:15:54;;;;;;;19.02;8.75;;;15.40;99.90;;;;;;4930177;29;20067;-64
2022/10/28 08:18:20;;;;;;;20.10;7.90;;;15.40;99.90;;;;;;4913762;29;20068;-64
2022/10/28 08:20:47;;;;;;;14.93;7.95;;;15.60;99.90;;;;;;4932564;29;20146;-64
2022/10/28 08:23:13;;;;;;;16.98;7.78;;;15.60;99.90;;;;;;4915821;29;20050;-65
2022/10/28 08:25:46;;;;;;;14.70;8.10;;;15.70;99.90;;;;;;4933927;29;20043;-64
2022/10/28 08:28:12;;;;;;;17.40;7.57;;;15.80;99.90;;;;;;4938333;29;20395;-64
2022/10/28 08:30:38;;;;;;;16.85;7.65;;;15.80;99.90;;;;;;4937042;29;20044;-63
2022/10/28 08:33:03;;;;;;;18.00;8.05;;;15.90;99.90;;;;;;4939748;29;20082;-64
2022/10/28 08:35:29;;;;;;;15.10;7.55;;;16.00;99.90;;;;;;4921435;29;20111;-64
2022/10/28 08:37:54;;;;;;;17.00;7.68;;;16.10;99.90;;;;;;4939857;29;20476;-65
2022/10/28 08:40:24;;;;;;;13.98;7.15;;;16.20;99.90;;;;;;4921853;29;20075;-65
2022/10/28 08:42:58;;;;;;;13.65;6.47;;;16.30;99.90;;;;;;4923691;29;20043;-64
2022/10/28 08:45:37;;;;;;;17.85;7.10;;;16.40;99.90;;;;;;4937067;29;20106;-63
2022/10/28 08:48:26;;;;;;;14.95;6.90;;;16.60;99.90;;;;;;4941317;29;20050;-65
2022/10/28 08:51:03;;;;;;;19.58;7.22;;;16.60;99.90;;;;;;4940616;29;20048;-63
2022/10/28 08:53:41;;;;;;;13.55;6.60;;;16.70;99.90;;;;;;4941303;29;20039;-63
2022/10/28 08:56:15;;;;;;;14.95;6.15;;;16.80;99.90;;;;;;4921760;29;20079;-65
2022/10/28 08:58:43;;;;;;;14.63;7.15;;;16.90;99.90;;;;;;4921772;29;20052;-64
2022/10/28 09:01:18;;;;;;;14.38;6.65;;;17.00;99.90;;;;;;4920420;29;20044;-63
2022/10/28 09:03:46;;;;;;;13.77;6.15;;;17.00;99.90;;;;;;4939871;29;20040;-64
2022/10/28 09:06:12;;;;;;;16.83;6.93;;;17.10;99.90;;;;;;4940667;29;20082;-64
2022/10/28 09:08:44;;;;;;;15.15;6.38;;;17.20;99.90;;;;;;4940949;29;20064;-65
2022/10/28 09:11:09;;;;;;;13.75;6.53;;;17.30;99.90;;;;;;4940756;29;20047;-65
2022/10/28 09:13:53;;;;;;;14.45;6.05;;;17.40;99.90;;;;;;4940787;29;20373;-64
2022/10/28 09:16:47;;;;;;;13.43;5.82;;;17.50;99.90;;;;;;4938807;29;20096;-65
2022/10/28 09:19:39;;;;;;;13.90;6.45;;;17.60;99.90;;;;;;4941314;29;20467;-65
2022/10/28 09:22:42;;;;;;;11.25;5.63;;;17.60;99.90;;;;;;4923340;29;20135;-64
2022/10/28 09:25:37;;;;;;;16.77;6.10;;;17.70;99.90;;;;;;4940871;29;20554;-65
2022/10/28 09:28:28;;;;;;;16.10;5.93;;;17.70;99.90;;;;;;4938021;29;20047;-63
2022/10/28 09:30:56;;;;;;;14.07;6.40;;;17.70;99.90;;;;;;4938555;29;20050;-65
2022/10/28 09:33:41;;;;;;;15.02;5.60;;;17.70;99.90;;;;;;4921922;29;20066;-64
2022/10/28 09:36:14;;;;;;;19.70;6.18;;;17.80;99.90;;;;;;4939384;29;20054;-65
2022/10/28 09:38:40;;;;;;;12.73;6.00;;;17.80;99.90;;;;;;4937319;29;20047;-65
2022/10/28 09:41:12;;;;;;;20.67;6.53;;;17.80;99.90;;;;;;4936118;29;20044;-65
2022/10/28 09:43:46;;;;;;;11.77;5.03;;;17.80;99.90;;;;;;4937395;29;20053;-65
2022/10/28 09:46:15;;;;;;;11.90;6.07;;;17.80;99.90;;;;;;4934257;29;20507;-63
2022/10/28 09:48:54;;;;;;;14.73;6.07;;;17.90;99.90;;;;;;4937766;29;20107;-64
2022/10/28 09:51:43;;;;;;;15.93;6.22;;;18.00;99.90;;;;;;4937380;29;20459;-65
2022/10/28 09:54:10;;;;;;;12.25;6.20;;;18.00;99.90;;;;;;4937575;29;20043;-65
2022/10/28 09:56:36;;;;;;;13.90;5.85;;;18.10;99.90;;;;;;4934659;29;20064;-64
2022/10/28 09:59:03;;;;;;;17.88;6.28;;;18.10;99.90;;;;;;4936104;29;20051;-63
2022/10/28 10:01:33;;;;;;;15.63;6.10;;;18.20;99.90;;;;;;4937134;29;20108;-64
2022/10/28 10:03:58;;;;;;;14.52;6.47;;;18.20;99.90;;;;;;4920346;29;20048;-65
2022/10/28 10:06:37;;;;;;;15.88;6.68;;;18.20;99.90;;;;;;4936183;29;20514;-64
2022/10/28 10:09:03;;;;;;;18.17;6.35;;;18.20;99.90;;;;;;4937258;29;20472;-64
2022/10/28 10:11:46;;;;;;;16.58;6.32;;;18.20;99.90;;;;;;4937519;29;20106;-65
2022/10/28 10:14:21;;;;;;;12.93;6.03;;;18.20;99.90;;;;;;4918987;29;20084;-64
2022/10/28 10:17:01;;;;;;;15.68;6.60;;;18.20;99.90;;;;;;4933889;29;20091;-63
2022/10/28 10:19:27;;;;;;;13.77;6.22;;;18.20;99.90;;;;;;4937241;29;20052;-63
2022/10/28 10:21:54;;;;;;;15.65;6.45;;;18.20;99.90;;;;;;4936370;29;20065;-65
2022/10/28 10:24:24;;;;;;;16.58;5.55;;;18.20;99.90;;;;;;4917628;29;20154;-65
2022/10/28 10:26:51;;;;;;;13.55;6.05;;;18.20;99.90;;;;;;4934973;29;20068;-65
2022/10/28 10:29:18;;;;;;;11.70;6.63;;;18.30;99.90;;;;;;4917203;29;20473;-65
2022/10/28 10:31:45;;;;;;;20.00;6.18;;;18.30;99.90;;;;;;4936510;29;20043;-64
2022/10/28 10:34:24;;;;;;;14.32;5.75;;;18.30;99.90;;;;;;4936999;29;20052;-65
2022/10/28 10:36:54;;;;;;;14.32;6.28;;;18.30;99.90;;;;;;4934770;29;20043;-66
2022/10/28 10:39:25;;;;;;;12.23;5.40;;;18.30;99.90;;;;;;4926791;29;20044;-65
2022/10/28 10:41:51;;;;;;;;;;;18.40;99.90;;;;;;4916193;29;20521;-64
2022/10/28 10:44:20;;;;;;;16.98;6.15;;;18.40;99.90;;;;;;4915651;29;19918;-65
2022/10/28 10:47:06;;;;;;;15.27;6.05;;;18.40;99.90;;;;;;4920716;29;20487;-64
2022/10/28 10:49:32;;;;;;;19.40;6.32;;;18.50;99.90;;;;;;4911893;29;20098;-65
2022/10/28 10:52:03;;;;;;;13.93;5.93;;;18.50;99.90;;;;;;4918954;29;20147;-65
2022/10/28 10:54:29;;;;;;;;;;;18.60;99.90;;;;;;4919568;29;20515;-65
2022/10/28 10:57:07;;;;;;;13.13;6.13;;;18.60;99.90;;;;;;4916494;29;19934;-64
2022/10/28 10:59:36;;;;;;;13.23;6.18;;;18.70;99.90;;;;;;4916999;29;20051;-65
2022/10/28 11:02:13;;;;;;;15.45;5.70;;;18.70;99.90;;;;;;4936293;29;20055;-65
2022/10/28 11:04:39;;;;;;;11.18;5.25;;;18.80;99.90;;;;;;4936423;29;20070;-65
2022/10/28 11:07:05;;;;;;;14.20;5.68;;;18.80;99.90;;;;;;4900724;29;20044;-65
2022/10/28 11:09:38;;;;;;;12.52;5.47;;;18.90;99.90;;;;;;4935644;29;20505;-64
2022/10/28 11:12:35;;;;;;;18.83;6.30;;;18.90;99.90;;;;;;4935368;29;20054;-65
2022/10/28 11:15:22;;;;;;;14.10;6.03;;;18.90;99.90;;;;;;4934557;29;20059;-65
2022/10/28 11:18:03;;;;;;;15.25;6.75;;;18.90;99.90;;;;;;4889410;29;20108;-64
2022/10/28 11:20:45;;;;;;;16.17;5.70;;;18.90;99.90;;;;;;4935680;29;20443;-65
2022/10/28 11:23:30;;;;;;;14.52;5.88;;;18.90;99.90;;;;;;4919026;29;20095;-65
2022/10/28 11:26:01;;;;;;;11.27;5.75;;;18.90;99.90;;;;;;4935949;29;20071;-64
2022/10/28 11:28:47;;;;;;;14.57;5.40;;;19.00;99.90;;;;;;4931695;29;20043;-64
2022/10/28 11:31:15;;;;;;;17.25;6.47;;;19.10;99.90;;;;;;4919485;29;20047;-65
2022/10/28 11:34:05;;;;;;;15.45;5.88;;;19.10;99.90;;;;;;4936226;29;20043;-65
2022/10/28 11:36:43;;;;;;;13.70;5.97;;;19.10;99.90;;;;;;4916838;29;20403;-65
2022/10/28 11:39:14;;;;;;;16.65;6.13;;;19.20;99.90;;;;;;4934251;29;20051;-66
2022/10/28 11:41:59;;;;;;;16.45;6.15;;;19.30;99.90;;;;;;4934743;29;20589;-65
2022/10/28 11:44:39;;;;;;;14.90;5.65;;;19.30;99.90;;;;;;4934418;29;20061;-65
2022/10/28 11:47:17;;;;;;;14.20;5.70;;;19.40;99.90;;;;;;4933899;29;20043;-66
2022/10/28 11:50:02;;;;;;;15.88;6.43;;;19.40;99.90;;;;;;4934500;29;20040;-66
2022/10/28 11:52:40;;;;;;;12.73;5.53;;;19.40;99.90;;;;;;4935075;29;20118;-65
2022/10/28 11:55:27;;;;;;;11.77;5.28;;;19.50;99.90;;;;;;4935097;29;20048;-66
2022/10/28 11:58:24;;;;;;;14.65;5.85;;;19.50;99.90;;;;;;4931818;29;20064;-65
2022/10/28 12:01:14;;;;;;;18.70;5.72;;;19.60;99.90;;;;;;4913578;29;20476;-65
2022/10/28 12:03:46;;;;;;;12.32;5.47;;;19.60;99.90;;;;;;4918966;29;20040;-65
2022/10/28 12:06:27;;;;;;;17.42;6.35;;;19.70;99.90;;;;;;4934678;29;20046;-65
2022/10/28 12:09:33;;;;;;;12.43;5.28;;;19.80;99.90;;;;;;4915980;29;20088;-64
2022/10/28 12:12:20;;;;;;;12.13;5.20;;;19.80;99.90;;;;;;4878144;29;20079;-65
2022/10/28 12:15:01;;;;;;;10.60;5.30;;;19.90;99.90;;;;;;4897633;29;20762;-63
2022/10/28 12:17:49;;;;;;;16.58;5.93;;;20.00;99.90;;;;;;4916331;29;20076;-65
2022/10/28 12:20:24;;;;;;;13.15;5.38;;;20.00;99.90;;;;;;4929137;29;20051;-65
2022/10/28 12:22:54;;;;;;;10.60;5.00;;;20.00;99.90;;;;;;4917731;29;20044;-65
2022/10/28 12:25:34;;;;;;;16.23;5.78;;;20.10;99.90;;;;;;4917751;29;20048;-64
2022/10/28 12:28:20;;;;;;;;;;;20.10;99.90;;;;;;4933473;29;20040;-64
2022/10/28 12:30:47;;;;;;;14.20;5.00;;;20.10;99.90;;;;;;4906798;29;19919;-65
2022/10/28 12:33:17;;;;;;;14.57;5.40;;;20.10;99.90;;;;;;4934559;29;20399;-64
2022/10/28 12:35:46;;;;;;;;;;;20.10;99.90;;;;;;4935123;29;20104;-65
2022/10/28 12:38:19;;;;;;;9.15;4.80;;;20.10;99.90;;;;;;4935050;29;19918;-65
2022/10/28 12:41:01;;;;;;;16.63;5.57;;;20.00;99.90;;;;;;4931677;29;20056;-66
2022/10/28 12:43:41;;;;;;;13.63;5.20;;;20.10;99.90;;;;;;4917604;29;20459;-64
2022/10/28 12:46:19;;;;;;;14.07;5.68;;;20.10;99.90;;;;;;4897686;29;20082;-66
2022/10/28 12:48:51;;;;;;;16.08;5.88;;;20.10;99.90;;;;;;4899097;29;20119;-65
2022/10/28 12:51:26;;;;;;;14.15;5.95;;;20.10;99.90;;;;;;4929937;29;20052;-66
2022/10/28 12:53:57;;;;;;;13.45;5.85;;;20.10;99.90;;;;;;4934588;29;20047;-63